This is the latest recevied weather packets stored in our database for station/object RK6MF-10. If no packets are shown the sender has not sent any weather packets the latest 10 day(s).
| Time | Temp. | Humidity | Pressure | Rain* | Wind** | Luminosity | Snow |
|---|---|---|---|---|---|---|---|
| 1777765663 | 4.44° C | 82% | 1015.7 hPa | - | - | - | - |
| 1777764763 | 4.44° C | 79% | 1015.6 hPa | - | - | - | - |
| 1777763863 | 5° C | 78% | 1015.6 hPa | - | - | - | - |
| 1777762963 | 5° C | 78% | 1015.7 hPa | - | - | - | - |
| 1777762063 | 5° C | 77% | 1015.5 hPa | - | - | - | - |
| 1777761162 | 5.56° C | 76% | 1015.6 hPa | - | - | - | - |
| 1777760262 | 5° C | 77% | 1015.8 hPa | - | - | - | - |
| 1777759362 | 5° C | 79% | 1015.8 hPa | - | - | - | - |
| 1777758462 | 5° C | 76% | 1015.9 hPa | - | - | - | - |
| 1777757562 | 5.56° C | 76% | 1015.9 hPa | - | - | - | - |
| 1777756662 | 5° C | 76% | 1016.2 hPa | - | - | - | - |
| 1777755762 | 6.11° C | 73% | 1016.3 hPa | - | - | - | - |
| 1777754862 | 6.11° C | 73% | 1016.5 hPa | - | - | - | - |
| 1777753962 | 6.67° C | 71% | 1016.6 hPa | - | - | - | - |
| 1777753062 | 6.67° C | 70% | 1016.6 hPa | - | - | - | - |
| 1777751263 | 6.11° C | 74% | 1016.5 hPa | - | - | - | - |
| 1777750363 | 6.67° C | 73% | 1016.6 hPa | - | - | - | - |
| 1777749463 | 6.67° C | 72% | 1016.5 hPa | - | - | - | - |
| 1777748563 | 6.67° C | 72% | 1016.4 hPa | - | - | - | - |
| 1777747662 | 7.22° C | 70% | 1016.2 hPa | - | - | - | - |
| 1777746762 | 7.78° C | 69% | 1016.3 hPa | - | - | - | - |
| 1777745862 | 7.78° C | 66% | 1016.5 hPa | - | - | - | - |
| 1777744962 | 8.33° C | 64% | 1016.5 hPa | - | - | - | - |
| 1777744062 | 8.33° C | 62% | 1016.6 hPa | - | - | - | - |
| 1777743162 | 8.33° C | 61% | 1016.5 hPa | - | - | - | - |
* Rain since midnight (hover to see other rain measurements)
** Current wind speed in m/s (hover to see current wind gust speed)